Time;durP1;ratioP1;P1;durP2;ratioP2;P2;SDS_P1;SDS_P2;PMS_P1;PMS_P2;Temp;Humidity;BMP_temperature;BMP_pressure;BME280_temperature;BME280_humidity;BME280_pressure;Samples;Min_cycle;Max_cycle;Signal;HPM_P1;HPM_P2
2023/04/07 00:00:21;;;;;;;0.40;0.40;;;8.00;85.80;;;;;;5016407;28;20226;-73
2023/04/07 00:02:47;;;;;;;0.63;0.63;;;8.00;85.30;;;;;;5033898;28;20416;-74
2023/04/07 00:05:13;;;;;;;0.63;0.63;;;8.00;85.10;;;;;;5033842;28;20282;-77
2023/04/07 00:07:40;;;;;;;0.60;0.60;;;7.90;85.70;;;;;;5033695;28;20645;-75
2023/04/07 00:10:07;;;;;;;0.80;0.80;;;7.90;85.80;;;;;;5033409;28;20193;-74
2023/04/07 00:12:33;;;;;;;0.73;0.73;;;7.90;86.10;;;;;;5033488;28;20209;-77
2023/04/07 00:14:58;;;;;;;0.40;0.40;;;7.80;86.40;;;;;;5033220;28;20243;-73
2023/04/07 00:17:24;;;;;;;0.33;0.33;;;7.70;86.70;;;;;;5035609;28;20411;-73
2023/04/07 00:19:50;;;;;;;0.50;0.50;;;7.80;86.20;;;;;;5034678;28;20180;-73
2023/04/07 00:22:16;;;;;;;0.87;0.87;;;7.80;85.80;;;;;;5033387;28;20189;-75
2023/04/07 00:24:42;;;;;;;0.85;0.85;;;7.70;86.70;;;;;;5033138;28;20166;-75
2023/04/07 00:27:08;;;;;;;0.63;0.63;;;7.70;86.90;;;;;;5033515;28;20548;-72
2023/04/07 00:29:33;;;;;;;0.53;0.53;;;7.60;87.20;;;;;;5033314;28;20190;-73
2023/04/07 00:31:59;;;;;;;0.50;0.50;;;7.60;87.80;;;;;;5033210;28;20201;-74
2023/04/07 00:34:25;;;;;;;0.97;0.97;;;7.50;87.70;;;;;;5033066;28;20193;-71
2023/04/07 00:36:51;;;;;;;1.07;0.40;;;7.50;88.30;;;;;;5033291;28;20287;-73
2023/04/07 00:39:17;;;;;;;0.73;0.73;;;7.60;88.10;;;;;;5033310;28;20569;-74
2023/04/07 00:41:44;;;;;;;0.50;0.50;;;7.60;88.50;;;;;;5015372;28;20198;-73
2023/04/07 00:44:10;;;;;;;0.75;0.75;;;7.60;88.70;;;;;;5032900;28;20174;-74
2023/04/07 00:46:36;;;;;;;0.40;0.40;;;7.50;89.20;;;;;;5033181;28;20182;-73
2023/04/07 00:49:02;;;;;;;0.40;0.40;;;7.50;89.40;;;;;;5033234;28;20541;-73
2023/04/07 00:51:28;;;;;;;0.70;0.70;;;7.50;90.20;;;;;;5032983;28;20198;-75
2023/04/07 00:53:54;;;;;;;0.60;0.60;;;7.50;90.40;;;;;;5032758;28;20817;-71
2023/04/07 00:56:20;;;;;;;0.40;0.40;;;7.60;90.30;;;;;;5033142;28;20176;-76
2023/04/07 00:58:45;;;;;;;0.90;0.90;;;7.60;90.40;;;;;;5032943;28;20182;-73
2023/04/07 01:01:23;;;;;;;0.47;0.47;;;7.60;90.50;;;;;;5032816;28;20432;-72
2023/04/07 01:04:06;;;;;;;1.95;1.05;;;7.70;90.00;;;;;;5032868;28;20201;-72
2023/04/07 01:06:36;;;;;;;0.50;0.50;;;7.60;90.10;;;;;;5033115;28;20196;-77
2023/04/07 01:09:10;;;;;;;0.40;0.40;;;7.60;90.40;;;;;;5033011;28;20264;-73
2023/04/07 01:11:47;;;;;;;0.60;0.60;;;7.50;90.50;;;;;;5035711;28;20201;-71
2023/04/07 01:14:14;;;;;;;0.70;0.70;;;7.50;90.60;;;;;;5018939;28;20199;-75
2023/04/07 01:16:50;;;;;;;2.55;1.23;;;7.50;90.40;;;;;;5036833;28;20170;-74
2023/04/07 01:19:22;;;;;;;1.83;1.73;;;7.40;90.80;;;;;;5036980;28;20199;-74
2023/04/07 01:21:50;;;;;;;0.77;0.77;;;7.40;91.00;;;;;;5036500;28;20557;-75
2023/04/07 01:24:30;;;;;;;0.60;0.60;;;7.30;90.90;;;;;;5036678;28;20534;-75
2023/04/07 01:27:12;;;;;;;0.82;0.82;;;7.30;91.30;;;;;;5018906;28;20178;-75
2023/04/07 01:29:46;;;;;;;0.60;0.55;;;7.40;91.10;;;;;;5036735;28;20169;-75
2023/04/07 01:32:13;;;;;;;0.47;0.47;;;7.40;90.90;;;;;;5036348;28;20285;-77
2023/04/07 01:34:40;;;;;;;0.75;0.75;;;7.40;90.90;;;;;;5036250;28;20279;-73
2023/04/07 01:37:07;;;;;;;0.40;0.40;;;7.40;90.90;;;;;;5036459;28;20508;-73
2023/04/07 01:39:34;;;;;;;0.47;0.47;;;7.30;90.40;;;;;;5036236;28;20272;-75
2023/04/07 01:42:02;;;;;;;0.40;0.40;;;7.40;90.70;;;;;;5036135;28;20189;-75
2023/04/07 01:44:30;;;;;;;1.33;1.33;;;7.30;90.80;;;;;;5036045;28;20182;-71
2023/04/07 01:46:57;;;;;;;0.68;0.68;;;7.40;91.00;;;;;;5036104;28;20254;-73
2023/04/07 01:49:24;;;;;;;0.50;0.50;;;7.40;91.40;;;;;;5036215;28;20221;-74
2023/04/07 01:51:50;;;;;;;0.30;0.30;;;7.40;91.70;;;;;;5036160;28;20537;-74
2023/04/07 01:54:17;;;;;;;0.45;0.45;;;7.50;91.70;;;;;;5035777;28;20201;-75
2023/04/07 01:56:44;;;;;;;0.40;0.40;;;7.50;91.70;;;;;;5035969;28;20181;-74
2023/04/07 01:59:10;;;;;;;0.80;0.50;;;7.40;91.90;;;;;;5035949;28;20644;-74
2023/04/07 02:01:36;;;;;;;0.68;0.68;;;7.30;92.20;;;;;;5035751;28;20190;-72
2023/04/07 02:04:08;;;;;;;0.90;0.90;;;7.20;92.00;;;;;;5035589;28;20641;-76
2023/04/07 02:06:48;;;;;;;0.75;0.70;;;7.30;91.80;;;;;;5035895;28;20404;-76
2023/04/07 02:09:15;;;;;;;0.95;0.73;;;7.30;91.80;;;;;;5035813;28;20181;-71
2023/04/07 02:11:44;;;;;;;6.40;1.38;;;7.20;92.20;;;;;;5035930;28;20205;-77
2023/04/07 02:14:11;;;;;;;6.88;1.83;;;7.10;92.40;;;;;;5035554;28;20537;-74
2023/04/07 02:16:38;;;;;;;0.55;0.55;;;7.20;92.60;;;;;;5035772;28;20173;-73
2023/04/07 02:19:04;;;;;;;0.65;0.65;;;7.30;92.40;;;;;;5017924;28;20718;-77
2023/04/07 02:21:33;;;;;;;1.25;1.15;;;7.20;92.70;;;;;;5035586;28;20584;-78
2023/04/07 02:24:05;;;;;;;0.50;0.50;;;7.20;93.00;;;;;;5035457;28;20214;-75
2023/04/07 02:26:37;;;;;;;0.93;0.93;;;7.20;93.20;;;;;;5035546;28;20186;-74
2023/04/07 02:29:05;;;;;;;0.40;0.40;;;7.20;93.20;;;;;;5035555;28;20202;-73
2023/04/07 02:31:31;;;;;;;0.60;0.60;;;7.30;92.60;;;;;;5035373;28;20534;-72
2023/04/07 02:33:57;;;;;;;1.70;1.60;;;7.30;92.50;;;;;;5034999;28;20198;-75
2023/04/07 02:36:22;;;;;;;2.00;0.60;;;7.20;92.90;;;;;;5017482;28;20180;-73
2023/04/07 02:38:48;;;;;;;1.23;0.50;;;7.20;93.00;;;;;;5035242;28;20173;-72
2023/04/07 02:41:15;;;;;;;0.50;0.50;;;7.20;92.90;;;;;;5035258;28;20194;-74
2023/04/07 02:43:40;;;;;;;0.40;0.40;;;7.20;92.80;;;;;;5035186;28;20538;-75
2023/04/07 02:46:06;;;;;;;0.80;0.80;;;7.10;93.00;;;;;;5035257;28;20193;-72
2023/04/07 02:48:31;;;;;;;0.40;0.40;;;7.00;93.10;;;;;;5035434;28;20173;-72
2023/04/07 02:50:58;;;;;;;0.87;0.87;;;7.00;93.10;;;;;;5034910;28;20278;-76
2023/04/07 02:53:23;;;;;;;0.70;0.70;;;7.00;93.00;;;;;;5034706;28;20179;-72
2023/04/07 02:55:49;;;;;;;0.80;0.80;;;6.90;93.40;;;;;;5034830;28;20546;-75
2023/04/07 02:58:15;;;;;;;0.73;0.73;;;6.80;93.40;;;;;;5034938;28;20169;-74
2023/04/07 03:00:40;;;;;;;0.40;0.40;;;6.80;93.70;;;;;;5034880;28;20249;-73
2023/04/07 03:03:06;;;;;;;0.83;0.83;;;6.80;93.70;;;;;;5034572;28;20627;-73
2023/04/07 03:05:32;;;;;;;3.60;0.73;;;6.90;93.50;;;;;;5016890;28;20211;-75
2023/04/07 03:07:57;;;;;;;0.97;0.83;;;6.90;93.40;;;;;;5034853;28;20177;-74
2023/04/07 03:10:23;;;;;;;1.23;0.97;;;6.90;93.20;;;;;;5034370;28;20207;-75
2023/04/07 03:12:49;;;;;;;1.23;0.93;;;6.80;93.60;;;;;;5034351;28;20217;-75
2023/04/07 03:15:15;;;;;;;1.10;1.00;;;6.80;94.00;;;;;;5034544;28;20219;-74
2023/04/07 03:17:40;;;;;;;0.50;0.50;;;6.70;94.40;;;;;;5034583;28;20234;-75
2023/04/07 03:20:07;;;;;;;1.40;1.37;;;6.70;94.60;;;;;;5034637;28;20175;-72
2023/04/07 03:22:32;;;;;;;1.38;0.90;;;6.70;94.60;;;;;;5034312;28;20636;-75
2023/04/07 03:24:58;;;;;;;1.90;0.83;;;6.60;94.80;;;;;;5034186;28;20263;-76
2023/04/07 03:27:24;;;;;;;1.17;1.07;;;6.60;94.80;;;;;;5034343;28;20225;-77
2023/04/07 03:29:52;;;;;;;0.63;0.63;;;6.70;94.50;;;;;;5034332;28;20171;-72
2023/04/07 03:32:18;;;;;;;0.65;0.65;;;6.70;94.20;;;;;;5034589;28;20284;-75
2023/04/07 03:34:44;;;;;;;0.50;0.50;;;6.70;94.20;;;;;;5033357;28;20284;-73
2023/04/07 03:37:09;;;;;;;0.57;0.57;;;6.70;94.20;;;;;;5033949;28;20642;-73
2023/04/07 03:39:36;;;;;;;0.53;0.50;;;6.70;94.30;;;;;;5034076;28;20174;-72
2023/04/07 03:42:02;;;;;;;0.50;0.50;;;6.70;94.30;;;;;;5033949;28;20239;-75
2023/04/07 03:44:28;;;;;;;0.75;0.75;;;6.70;94.20;;;;;;5033667;28;20250;-72
2023/04/07 03:46:53;;;;;;;0.40;0.40;;;6.70;94.10;;;;;;5034012;28;20204;-73
2023/04/07 03:49:19;;;;;;;1.27;1.17;;;6.60;94.20;;;;;;5033997;28;20181;-74
2023/04/07 03:51:44;;;;;;;1.70;0.80;;;6.60;94.40;;;;;;5016021;28;20203;-73
2023/04/07 03:54:10;;;;;;;0.70;0.70;;;6.60;94.40;;;;;;5033614;28;20197;-73
2023/04/07 03:56:36;;;;;;;0.40;0.40;;;6.60;94.50;;;;;;5033748;28;20176;-74
2023/04/07 03:59:02;;;;;;;0.80;0.80;;;6.50;94.50;;;;;;5033760;28;20175;-73
2023/04/07 04:01:28;;;;;;;0.40;0.40;;;6.50;94.50;;;;;;5033680;28;20301;-73
2023/04/07 04:03:53;;;;;;;0.40;0.40;;;6.40;94.50;;;;;;5033552;28;20458;-76
2023/04/07 04:06:19;;;;;;;0.40;0.40;;;6.30;94.60;;;;;;5033707;28;20563;-74
2023/04/07 04:08:45;;;;;;;0.90;0.90;;;6.10;94.70;;;;;;5034581;28;20312;-71
2023/04/07 04:11:10;;;;;;;1.43;0.80;;;6.00;95.00;;;;;;5035249;28;20289;-75
2023/04/07 04:13:36;;;;;;;0.50;0.50;;;5.80;95.20;;;;;;5033193;28;20220;-71
2023/04/07 04:16:02;;;;;;;0.40;0.40;;;5.80;95.80;;;;;;5033834;28;20171;-73
2023/04/07 04:18:27;;;;;;;1.20;1.20;;;5.70;96.00;;;;;;5033403;28;20171;-75
2023/04/07 04:20:53;;;;;;;0.40;0.40;;;5.80;96.20;;;;;;5033519;28;20642;-72
2023/04/07 04:23:18;;;;;;;0.77;0.77;;;5.80;96.10;;;;;;5033184;28;20163;-72
2023/04/07 04:25:44;;;;;;;1.67;1.57;;;5.80;95.90;;;;;;5033469;28;20182;-73
2023/04/07 04:28:10;;;;;;;2.37;2.27;;;5.80;95.90;;;;;;5033407;28;20175;-72
2023/04/07 04:30:35;;;;;;;0.83;0.73;;;5.80;95.80;;;;;;5033341;28;20197;-72
2023/04/07 04:33:01;;;;;;;0.50;0.50;;;5.80;95.80;;;;;;5033248;28;20174;-72
2023/04/07 04:35:27;;;;;;;0.85;0.82;;;5.80;95.80;;;;;;5033113;28;20198;-74
2023/04/07 04:37:53;;;;;;;0.43;0.43;;;5.80;95.90;;;;;;5033326;28;20171;-78
2023/04/07 04:40:19;;;;;;;0.97;0.97;;;5.70;96.40;;;;;;5033149;28;20601;-72
2023/04/07 04:42:44;;;;;;;0.83;0.83;;;5.80;96.50;;;;;;5033134;28;20169;-73
2023/04/07 04:45:10;;;;;;;0.70;0.70;;;5.80;96.50;;;;;;5033769;28;20250;-73
2023/04/07 04:47:37;;;;;;;20.63;1.00;;;5.80;96.40;;;;;;5037253;28;20403;-75
2023/04/07 04:50:04;;;;;;;2.58;1.15;;;5.90;96.30;;;;;;5037337;28;20178;-74
2023/04/07 04:52:30;;;;;;;0.77;0.77;;;5.90;96.20;;;;;;5037094;28;20190;-73
2023/04/07 04:54:56;;;;;;;0.83;0.83;;;5.90;96.20;;;;;;5037028;28;20186;-72
2023/04/07 04:57:21;;;;;;;1.00;1.00;;;5.80;96.10;;;;;;5037272;28;20248;-75
2023/04/07 04:59:47;;;;;;;0.60;0.60;;;5.70;96.30;;;;;;5019468;28;20172;-72
2023/04/07 05:02:12;;;;;;;0.80;0.80;;;5.60;96.60;;;;;;5036939;28;20194;-75
2023/04/07 05:04:38;;;;;;;1.33;1.23;;;5.80;96.80;;;;;;5036854;28;20178;-74
2023/04/07 05:07:04;;;;;;;0.87;0.87;;;5.90;96.10;;;;;;5036983;28;20229;-76
2023/04/07 05:09:30;;;;;;;0.60;0.60;;;5.90;95.90;;;;;;5019035;28;20241;-73
2023/04/07 05:11:56;;;;;;;0.75;0.75;;;6.00;96.00;;;;;;5036814;28;20211;-72
2023/04/07 05:14:22;;;;;;;0.50;0.47;;;6.00;96.10;;;;;;5036460;28;20195;-76
2023/04/07 05:16:48;;;;;;;1.20;1.10;;;6.00;95.80;;;;;;5036759;28;20517;-72
2023/04/07 05:19:14;;;;;;;0.60;0.60;;;6.00;95.80;;;;;;5037099;28;20178;-77
2023/04/07 05:21:40;;;;;;;1.43;0.60;;;6.00;96.00;;;;;;5036525;28;20432;-76
2023/04/07 05:24:05;;;;;;;1.00;0.90;;;6.00;96.10;;;;;;5036455;28;20415;-75
2023/04/07 05:26:31;;;;;;;0.60;0.60;;;5.90;96.30;;;;;;5036704;28;20401;-77
2023/04/07 05:28:57;;;;;;;0.90;0.90;;;5.90;96.60;;;;;;5036671;28;20182;-71
2023/04/07 05:31:22;;;;;;;0.60;0.60;;;5.90;96.90;;;;;;5036423;28;20556;-74
2023/04/07 05:33:48;;;;;;;0.43;0.43;;;5.90;97.10;;;;;;5036344;28;20237;-75
2023/04/07 05:36:14;;;;;;;0.60;0.60;;;5.90;97.10;;;;;;5036314;28;20171;-74
2023/04/07 05:38:40;;;;;;;0.40;0.40;;;6.00;96.90;;;;;;5036316;28;20176;-73
2023/04/07 05:41:06;;;;;;;0.82;0.68;;;6.00;96.70;;;;;;5036198;28;20425;-73
2023/04/07 05:43:31;;;;;;;0.63;0.63;;;6.10;96.40;;;;;;5036056;28;20216;-74
2023/04/07 05:45:57;;;;;;;1.23;1.13;;;6.20;96.30;;;;;;5036172;28;20196;-71
2023/04/07 05:48:22;;;;;;;1.63;1.53;;;6.20;96.70;;;;;;5036170;28;20163;-72
2023/04/07 05:50:48;;;;;;;4.10;0.70;;;6.20;96.50;;;;;;5036134;28;20193;-72
2023/04/07 05:53:14;;;;;;;1.80;1.17;;;6.30;96.50;;;;;;5035903;28;20247;-72
2023/04/07 05:55:43;;;;;;;0.30;0.30;;;6.40;96.30;;;;;;5035851;28;20300;-76
2023/04/07 05:58:08;;;;;;;0.52;0.52;;;6.40;96.20;;;;;;5035834;28;20174;-74
2023/04/07 06:00:34;;;;;;;3.03;2.20;;;6.40;96.30;;;;;;5036053;28;20193;-73
2023/04/07 06:03:00;;;;;;;1.53;1.43;;;6.50;96.20;;;;;;5035743;28;20167;-74
2023/04/07 06:05:26;;;;;;;1.83;1.60;;;6.50;96.00;;;;;;5035979;28;20170;-74
2023/04/07 06:07:53;;;;;;;0.73;0.73;;;6.50;95.70;;;;;;5035953;28;20199;-74
2023/04/07 06:10:19;;;;;;;3.60;1.58;;;6.60;95.60;;;;;;5035515;28;20462;-73
2023/04/07 06:12:44;;;;;;;1.40;1.30;;;6.70;95.40;;;;;;5035855;28;20173;-72
2023/04/07 06:15:10;;;;;;;1.80;1.53;;;6.80;95.00;;;;;;5035435;28;20454;-73
2023/04/07 06:17:36;;;;;;;0.70;0.70;;;6.90;94.80;;;;;;5035646;28;20259;-71
2023/04/07 06:20:01;;;;;;;2.40;2.30;;;7.00;94.60;;;;;;5035570;28;20176;-71
2023/04/07 06:22:27;;;;;;;0.83;0.83;;;7.10;94.50;;;;;;5035539;28;20177;-73
2023/04/07 06:24:53;;;;;;;1.10;1.10;;;7.30;94.20;;;;;;5035492;28;20209;-73
2023/04/07 06:27:19;;;;;;;2.93;2.67;;;7.40;93.90;;;;;;5035778;28;20188;-73
2023/04/07 06:29:45;;;;;;;1.65;1.55;;;7.50;93.50;;;;;;5035545;28;20743;-73
2023/04/07 06:32:11;;;;;;;0.70;0.70;;;7.50;93.50;;;;;;5035280;28;20232;-72
2023/04/07 06:34:37;;;;;;;1.90;1.80;;;7.60;93.60;;;;;;5034951;28;20220;-74
2023/04/07 06:37:04;;;;;;;0.60;0.60;;;7.70;93.50;;;;;;5035427;28;20413;-73
2023/04/07 06:39:29;;;;;;;0.63;0.60;;;7.90;93.00;;;;;;5035175;28;20166;-71
2023/04/07 06:41:56;;;;;;;0.77;0.70;;;8.10;92.50;;;;;;5035195;28;20646;-74
2023/04/07 06:44:22;;;;;;;12.23;7.50;;;8.20;92.40;;;;;;5035201;28;20170;-74
2023/04/07 06:46:51;;;;;;;3.90;2.53;;;8.20;92.40;;;;;;5035643;28;20197;-73
2023/04/07 06:49:17;;;;;;;0.90;0.90;;;8.30;92.20;;;;;;5035181;28;20205;-77
2023/04/07 06:51:43;;;;;;;1.13;0.75;;;8.30;92.10;;;;;;5035154;28;20225;-74
2023/04/07 06:54:12;;;;;;;0.70;0.70;;;8.30;92.10;;;;;;5034961;28;20731;-71
2023/04/07 06:56:41;;;;;;;0.70;0.70;;;8.30;92.10;;;;;;5035047;28;20540;-74
2023/04/07 06:59:07;;;;;;;2.20;1.17;;;8.30;92.10;;;;;;5034894;28;20646;-75
2023/04/07 07:01:33;;;;;;;0.73;0.73;;;8.30;92.20;;;;;;5034706;28;20193;-75
2023/04/07 07:04:02;;;;;;;0.88;0.65;;;8.40;92.30;;;;;;5034545;28;20171;-74
2023/04/07 07:06:27;;;;;;;0.80;0.80;;;8.40;91.80;;;;;;5034898;28;20345;-74
2023/04/07 07:08:53;;;;;;;1.47;1.37;;;8.10;91.70;;;;;;5033982;28;20177;-73
2023/04/07 07:11:19;;;;;;;4.27;0.73;;;8.00;92.30;;;;;;5034516;28;20301;-73
2023/04/07 07:13:45;;;;;;;1.38;1.27;;;8.20;92.10;;;;;;5034585;28;20520;-77
2023/04/07 07:16:14;;;;;;;1.33;1.27;;;8.50;91.70;;;;;;5034897;28;20198;-74
2023/04/07 07:18:40;;;;;;;1.10;1.00;;;8.70;91.30;;;;;;5034650;28;20521;-74
2023/04/07 07:21:05;;;;;;;2.50;2.00;;;8.70;90.80;;;;;;5034515;28;20645;-73
2023/04/07 07:23:31;;;;;;;0.80;0.80;;;8.60;90.80;;;;;;5034179;28;20196;-74
2023/04/07 07:25:56;;;;;;;0.70;0.70;;;8.70;91.20;;;;;;5016666;28;20257;-71
2023/04/07 07:28:22;;;;;;;0.97;0.90;;;8.80;91.40;;;;;;5016660;28;20181;-73
2023/04/07 07:30:48;;;;;;;0.60;0.60;;;9.00;91.30;;;;;;5034185;28;20269;-73
2023/04/07 07:33:14;;;;;;;0.67;0.67;;;9.00;90.60;;;;;;5034180;28;20410;-76
2023/04/07 07:35:40;;;;;;;0.83;0.83;;;9.00;90.20;;;;;;5034341;28;20457;-74
2023/04/07 07:38:05;;;;;;;1.23;1.23;;;9.10;90.20;;;;;;5034338;28;20167;-77
2023/04/07 07:40:32;;;;;;;2.10;1.70;;;9.10;90.00;;;;;;5034195;28;20461;-75
2023/04/07 07:42:59;;;;;;;0.50;0.50;;;9.10;90.10;;;;;;5033804;28;20205;-74
2023/04/07 07:45:24;;;;;;;1.25;0.75;;;9.10;90.10;;;;;;5033889;28;20185;-75
2023/04/07 07:47:50;;;;;;;2.20;2.07;;;9.10;90.20;;;;;;5033902;28;20254;-75
2023/04/07 07:50:15;;;;;;;1.20;1.10;;;9.10;90.00;;;;;;5034108;28;20224;-73
2023/04/07 07:52:42;;;;;;;0.70;0.70;;;9.00;90.50;;;;;;5033851;28;20175;-76
2023/04/07 07:55:08;;;;;;;0.57;0.57;;;9.00;90.30;;;;;;5033621;28;20221;-72
2023/04/07 07:57:35;;;;;;;1.25;0.70;;;9.10;90.10;;;;;;5034062;28;20630;-73
2023/04/07 08:00:03;;;;;;;1.08;1.08;;;9.00;89.80;;;;;;5033882;28;20252;-76
2023/04/07 08:02:30;;;;;;;1.67;1.58;;;8.90;90.10;;;;;;5037065;28;20249;-73
2023/04/07 08:04:59;;;;;;;1.10;0.82;;;8.60;90.20;;;;;;5034191;28;20198;-78
2023/04/07 08:07:26;;;;;;;0.98;0.98;;;8.50;90.70;;;;;;5033683;28;20225;-73
2023/04/07 08:09:51;;;;;;;0.73;0.73;;;8.50;90.90;;;;;;5033692;28;20273;-73
2023/04/07 08:12:17;;;;;;;0.90;0.90;;;8.50;91.00;;;;;;5033447;28;20274;-73
2023/04/07 08:14:43;;;;;;;0.80;0.80;;;8.20;91.30;;;;;;5033595;28;20662;-73
2023/04/07 08:17:09;;;;;;;0.60;0.60;;;8.10;91.60;;;;;;5033674;28;20189;-74
2023/04/07 08:19:34;;;;;;;1.23;1.13;;;8.00;91.90;;;;;;5033463;28;20436;-73
2023/04/07 08:22:00;;;;;;;7.60;1.40;;;8.00;92.10;;;;;;5033417;28;20183;-76
2023/04/07 08:24:28;;;;;;;1.23;1.13;;;7.90;92.30;;;;;;5033271;28;20189;-74
2023/04/07 08:26:53;;;;;;;2.63;2.50;;;7.80;92.60;;;;;;5033407;28;20204;-72
2023/04/07 08:29:19;;;;;;;1.23;0.87;;;7.70;92.90;;;;;;5033516;28;20208;-73
2023/04/07 08:31:45;;;;;;;0.60;0.60;;;7.60;93.20;;;;;;5033491;28;20733;-73
2023/04/07 08:34:12;;;;;;;0.73;0.73;;;7.50;93.60;;;;;;5032971;28;20791;-77
2023/04/07 08:36:38;;;;;;;2.13;1.77;;;7.40;94.10;;;;;;5033224;28;20408;-73
2023/04/07 08:39:04;;;;;;;0.93;0.73;;;7.40;94.40;;;;;;5033238;28;20223;-73
2023/04/07 08:41:39;;;;;;;0.50;0.50;;;7.50;94.50;;;;;;5033373;28;20299;-74
2023/04/07 08:44:06;;;;;;;1.27;1.27;;;7.50;94.60;;;;;;5033151;28;20169;-71
2023/04/07 08:46:33;;;;;;;1.40;1.40;;;7.60;94.70;;;;;;5033337;28;20180;-72
2023/04/07 08:49:00;;;;;;;0.93;0.93;;;7.50;94.90;;;;;;5033090;28;20173;-72
2023/04/07 08:51:30;;;;;;;1.00;0.95;;;7.40;95.50;;;;;;5032993;28;20197;-74
2023/04/07 08:54:08;;;;;;;0.98;0.88;;;7.30;96.00;;;;;;5033056;28;20197;-73
2023/04/07 08:56:33;;;;;;;0.98;0.98;;;7.40;96.30;;;;;;5033267;28;20166;-73
2023/04/07 08:59:01;;;;;;;1.50;1.47;;;7.40;96.50;;;;;;5033225;28;20540;-75
2023/04/07 09:01:28;;;;;;;0.70;0.70;;;7.50;96.60;;;;;;5032935;28;20200;-71
2023/04/07 09:03:56;;;;;;;0.60;0.60;;;7.60;96.40;;;;;;5032810;28;20177;-75
2023/04/07 09:06:22;;;;;;;1.30;1.30;;;7.70;96.40;;;;;;5015274;28;20177;-75
2023/04/07 09:08:48;;;;;;;0.57;0.57;;;7.90;96.20;;;;;;5033060;28;20235;-76
2023/04/07 09:11:13;;;;;;;1.67;1.57;;;8.10;95.90;;;;;;5032801;28;20540;-74
2023/04/07 09:13:39;;;;;;;0.83;0.63;;;8.20;95.60;;;;;;5032604;28;20173;-75
2023/04/07 09:16:05;;;;;;;1.67;1.57;;;8.30;94.90;;;;;;5032895;28;20170;-72
2023/04/07 09:18:31;;;;;;;0.82;0.82;;;8.40;94.40;;;;;;5032877;28;20174;-73
2023/04/07 09:21:01;;;;;;;1.37;1.07;;;8.20;94.20;;;;;;5032955;28;20673;-73
2023/04/07 09:23:31;;;;;;;0.40;0.40;;;8.00;95.20;;;;;;5032780;28;20867;-75
2023/04/07 09:26:17;;;;;;;0.63;0.63;;;7.70;96.40;;;;;;5015273;28;20181;-73
2023/04/07 09:28:44;;;;;;;0.40;0.40;;;7.80;97.40;;;;;;5032804;28;20180;-75
2023/04/07 09:31:09;;;;;;;0.40;0.40;;;7.70;97.40;;;;;;5033426;28;20247;-74
2023/04/07 09:33:35;;;;;;;8.77;1.70;;;7.50;97.80;;;;;;5036433;28;20172;-72
2023/04/07 09:36:05;;;;;;;0.40;0.40;;;7.60;98.00;;;;;;5036608;28;20627;-72
2023/04/07 09:38:39;;;;;;;0.75;0.75;;;7.50;97.70;;;;;;5036862;28;20639;-75
2023/04/07 09:41:11;;;;;;;0.40;0.40;;;7.40;97.90;;;;;;5019247;28;20708;-75
2023/04/07 09:43:40;;;;;;;0.77;0.77;;;7.10;98.10;;;;;;5018418;28;20185;-71
2023/04/07 09:46:10;;;;;;;0.70;0.63;;;7.10;98.50;;;;;;5036366;28;20178;-73
2023/04/07 09:48:35;;;;;;;0.40;0.40;;;7.00;98.60;;;;;;5036368;28;20170;-76
2023/04/07 09:51:06;;;;;;;0.40;0.40;;;6.90;98.90;;;;;;5036342;28;20699;-77
2023/04/07 09:53:50;;;;;;;0.35;0.35;;;6.80;99.20;;;;;;5036112;28;20176;-75
2023/04/07 09:56:23;;;;;;;0.30;0.30;;;7.00;99.20;;;;;;5036717;28;20181;-73
2023/04/07 09:58:53;;;;;;;0.40;0.40;;;7.10;98.90;;;;;;5037669;28;20591;-71
2023/04/07 10:01:20;;;;;;;0.30;0.30;;;7.20;98.50;;;;;;5035930;28;20272;-74
2023/04/07 10:03:46;;;;;;;0.60;0.50;;;7.30;98.40;;;;;;5035900;28;20170;-74
2023/04/07 10:06:12;;;;;;;0.40;0.40;;;7.40;97.90;;;;;;5035987;28;20653;-72
2023/04/07 10:08:41;;;;;;;0.40;0.40;;;7.60;97.70;;;;;;5035849;28;20177;-73
2023/04/07 10:11:08;;;;;;;0.68;0.68;;;7.50;97.20;;;;;;5035802;28;20964;-74
2023/04/07 10:13:36;;;;;;;0.77;0.77;;;7.40;97.50;;;;;;5035586;28;20165;-74
2023/04/07 10:16:04;;;;;;;0.85;0.85;;;7.40;97.70;;;;;;5035905;28;20289;-72
2023/04/07 10:18:35;;;;;;;0.40;0.40;;;7.40;97.70;;;;;;5035810;28;20185;-75
2023/04/07 10:21:06;;;;;;;0.75;0.75;;;7.40;97.70;;;;;;5035720;28;20553;-72
2023/04/07 10:23:50;;;;;;;0.90;0.90;;;7.40;98.00;;;;;;5035621;28;20226;-72
2023/04/07 10:26:25;;;;;;;0.70;0.55;;;7.50;97.70;;;;;;5017927;28;20264;-74
2023/04/07 10:28:54;;;;;;;0.60;0.60;;;7.50;97.60;;;;;;5035664;28;20513;-74
2023/04/07 10:31:21;;;;;;;0.60;0.60;;;7.50;97.50;;;;;;5035380;28;20196;-74
2023/04/07 10:33:52;;;;;;;0.68;0.68;;;7.50;97.70;;;;;;5035128;28;20272;-76
2023/04/07 10:36:19;;;;;;;2.35;0.90;;;7.50;97.70;;;;;;5035479;28;20185;-73
2023/04/07 10:39:06;;;;;;;0.40;0.40;;;7.50;98.10;;;;;;5035460;28;20174;-71
2023/04/07 10:41:35;;;;;;;0.80;0.80;;;7.40;98.00;;;;;;5035212;28;20263;-74
2023/04/07 10:44:02;;;;;;;0.50;0.40;;;7.50;98.20;;;;;;5034120;28;20169;-76
2023/04/07 10:46:47;;;;;;;0.30;0.30;;;7.50;98.20;;;;;;5035334;28;20181;-76
2023/04/07 10:49:13;;;;;;;0.40;0.40;;;7.40;98.30;;;;;;5035227;28;20599;-73
2023/04/07 10:51:39;;;;;;;0.73;0.73;;;7.20;98.60;;;;;;5035062;28;20204;-75
2023/04/07 10:54:25;;;;;;;0.40;0.40;;;7.20;98.70;;;;;;5034864;28;20287;-74
2023/04/07 10:57:10;;;;;;;1.05;1.05;;;7.00;99.10;;;;;;5034761;28;20396;-74
2023/04/07 10:59:38;;;;;;;0.40;0.40;;;6.80;99.70;;;;;;5035096;28;20169;-72
2023/04/07 11:02:13;;;;;;;0.50;0.50;;;6.60;99.90;;;;;;5034765;28;20243;-74
2023/04/07 11:04:41;;;;;;;4.30;1.00;;;6.70;99.90;;;;;;5016803;28;20541;-73
2023/04/07 11:07:07;;;;;;;0.77;0.77;;;6.80;99.90;;;;;;5034826;28;20169;-73
2023/04/07 11:09:33;;;;;;;1.77;0.80;;;6.70;99.90;;;;;;5034508;28;20184;-76
2023/04/07 11:11:59;;;;;;;1.70;1.60;;;6.80;99.90;;;;;;5034910;28;20220;-73
2023/04/07 11:14:26;;;;;;;0.50;0.50;;;6.70;99.90;;;;;;5034457;28;20453;-74
2023/04/07 11:16:52;;;;;;;0.50;0.50;;;6.80;99.90;;;;;;5034515;28;20252;-70
2023/04/07 11:19:18;;;;;;;0.45;0.45;;;7.00;99.90;;;;;;5034557;28;20175;-76
2023/04/07 11:21:43;;;;;;;0.40;0.40;;;7.00;99.90;;;;;;5034392;28;20684;-73
2023/04/07 11:24:09;;;;;;;0.40;0.40;;;7.00;99.90;;;;;;5034474;28;20528;-72
2023/04/07 11:26:40;;;;;;;0.40;0.40;;;7.00;99.90;;;;;;5034672;28;20582;-75
2023/04/07 11:29:06;;;;;;;0.30;0.30;;;7.00;99.90;;;;;;5034280;28;20231;-73
2023/04/07 11:31:32;;;;;;;0.40;0.40;;;6.90;99.90;;;;;;5016477;28;20225;-77
2023/04/07 11:34:01;;;;;;;0.40;0.40;;;6.90;99.90;;;;;;5034127;28;20723;-73
2023/04/07 11:36:38;;;;;;;0.40;0.40;;;7.00;99.90;;;;;;5034249;28;20405;-74
2023/04/07 11:39:04;;;;;;;0.40;0.40;;;7.00;99.90;;;;;;5016581;28;20660;-75
2023/04/07 11:41:31;;;;;;;0.40;0.40;;;7.10;99.80;;;;;;5034038;28;20193;-72
2023/04/07 11:44:08;;;;;;;0.30;0.30;;;7.00;99.90;;;;;;5033854;28;20215;-73
2023/04/07 11:46:35;;;;;;;0.55;0.50;;;7.10;99.90;;;;;;5034043;28;20178;-76
2023/04/07 11:49:09;;;;;;;0.40;0.40;;;7.30;99.90;;;;;;5034065;28;20170;-73
2023/04/07 11:51:35;;;;;;;0.30;0.30;;;7.30;99.60;;;;;;5034045;28;20193;-76
2023/04/07 11:54:01;;;;;;;0.30;0.30;;;7.30;99.20;;;;;;5035085;28;20654;-73
2023/04/07 11:56:26;;;;;;;0.70;0.70;;;7.20;99.60;;;;;;5034244;28;20177;-74
2023/04/07 11:58:54;;;;;;;0.53;0.53;;;7.30;99.50;;;;;;5033859;28;20170;-74
2023/04/07 12:01:20;;;;;;;0.50;0.50;;;7.30;99.30;;;;;;5033869;28;20425;-74
2023/04/07 12:04:03;;;;;;;0.40;0.40;;;7.40;99.20;;;;;;5033547;28;20174;-72
2023/04/07 12:06:37;;;;;;;0.65;0.40;;;7.40;99.20;;;;;;5033728;28;20166;-73
2023/04/07 12:09:29;;;;;;;0.40;0.40;;;7.40;99.30;;;;;;5033716;28;20174;-74
2023/04/07 12:11:56;;;;;;;0.40;0.40;;;7.40;99.10;;;;;;5033603;28;20231;-73
2023/04/07 12:14:22;;;;;;;0.30;0.30;;;7.30;99.30;;;;;;5033352;28;20200;-71
2023/04/07 12:16:48;;;;;;;0.50;0.50;;;7.30;99.40;;;;;;5033767;28;20184;-73
2023/04/07 12:19:15;;;;;;;0.40;0.40;;;7.30;99.30;;;;;;5033628;28;20256;-72
2023/04/07 12:21:41;;;;;;;0.77;0.77;;;7.20;99.20;;;;;;5033519;28;20428;-72
2023/04/07 12:24:06;;;;;;;1.53;0.60;;;7.40;99.50;;;;;;5033302;28;20177;-73
2023/04/07 12:26:32;;;;;;;0.50;0.50;;;7.40;99.20;;;;;;5033537;28;20228;-75
2023/04/07 12:29:03;;;;;;;0.50;0.50;;;7.60;99.30;;;;;;5033675;28;20174;-73
2023/04/07 12:31:33;;;;;;;0.40;0.40;;;7.80;99.00;;;;;;5015895;28;20205;-74
2023/04/07 12:33:59;;;;;;;0.55;0.50;;;7.80;98.40;;;;;;5033018;28;20563;-75
2023/04/07 12:36:26;;;;;;;0.60;0.60;;;8.00;98.30;;;;;;5033247;28;20173;-72
2023/04/07 12:38:53;;;;;;;0.70;0.70;;;8.20;98.30;;;;;;5033256;28;20408;-73
2023/04/07 12:41:18;;;;;;;0.60;0.55;;;8.40;98.20;;;;;;5033256;28;20544;-76
2023/04/07 12:43:44;;;;;;;0.30;0.30;;;8.60;97.60;;;;;;5033052;28;20180;-74
2023/04/07 12:46:10;;;;;;;2.50;2.40;;;8.80;97.30;;;;;;5033211;28;20173;-75
2023/04/07 12:48:36;;;;;;;0.30;0.30;;;8.90;97.20;;;;;;5033106;28;20397;-75
2023/04/07 12:51:01;;;;;;;0.37;0.37;;;9.10;97.00;;;;;;5033033;28;20233;-73
2023/04/07 12:53:27;;;;;;;0.30;0.30;;;9.30;96.30;;;;;;5033052;28;20705;-74
2023/04/07 12:55:53;;;;;;;1.53;1.43;;;9.40;95.60;;;;;;5033064;28;20281;-72
2023/04/07 12:58:19;;;;;;;0.30;0.30;;;9.20;95.50;;;;;;5033239;28;20202;-74